sensor_id;sensor_type;location;lat;lon;timestamp;P1;durP1;ratioP1;P2;durP2;ratioP2
18340;SDS011;9296;48.084;16.352;2022-10-26T00:01:20;6.75;;;3.67;;
18340;SDS011;9296;48.084;16.352;2022-10-26T00:03:47;7.97;;;4.15;;
18340;SDS011;9296;48.084;16.352;2022-10-26T00:12:22;6.32;;;4.10;;
18340;SDS011;9296;48.084;16.352;2022-10-26T00:14:50;6.45;;;4.30;;
18340;SDS011;9296;48.084;16.352;2022-10-26T00:17:17;6.55;;;4.35;;
18340;SDS011;9296;48.084;16.352;2022-10-26T00:19:44;6.22;;;4.15;;
18340;SDS011;9296;48.084;16.352;2022-10-26T00:25:33;7.80;;;4.47;;
18340;SDS011;9296;48.084;16.352;2022-10-26T00:28:00;7.03;;;3.97;;
18340;SDS011;9296;48.084;16.352;2022-10-26T00:30:28;6.95;;;3.72;;
18340;SDS011;9296;48.084;16.352;2022-10-26T00:32:55;7.05;;;4.40;;
18340;SDS011;9296;48.084;16.352;2022-10-26T00:35:22;8.05;;;4.28;;
18340;SDS011;9296;48.084;16.352;2022-10-26T00:37:52;6.80;;;4.40;;
18340;SDS011;9296;48.084;16.352;2022-10-26T00:40:19;7.32;;;4.28;;
18340;SDS011;9296;48.084;16.352;2022-10-26T00:42:46;11.10;;;5.55;;
18340;SDS011;9296;48.084;16.352;2022-10-26T00:45:20;6.68;;;4.40;;
18340;SDS011;9296;48.084;16.352;2022-10-26T00:47:51;9.77;;;4.70;;
18340;SDS011;9296;48.084;16.352;2022-10-26T00:50:21;7.28;;;4.25;;
18340;SDS011;9296;48.084;16.352;2022-10-26T00:56:15;8.82;;;4.40;;
18340;SDS011;9296;48.084;16.352;2022-10-26T00:58:43;9.10;;;4.57;;
18340;SDS011;9296;48.084;16.352;2022-10-26T01:01:10;8.80;;;4.68;;
18340;SDS011;9296;48.084;16.352;2022-10-26T01:03:38;7.15;;;4.22;;
18340;SDS011;9296;48.084;16.352;2022-10-26T01:06:06;5.28;;;3.97;;
18340;SDS011;9296;48.084;16.352;2022-10-26T01:08:34;7.57;;;4.10;;
18340;SDS011;9296;48.084;16.352;2022-10-26T01:11:01;7.68;;;4.60;;
18340;SDS011;9296;48.084;16.352;2022-10-26T01:13:29;9.48;;;4.40;;
18340;SDS011;9296;48.084;16.352;2022-10-26T01:16:02;7.28;;;4.72;;
18340;SDS011;9296;48.084;16.352;2022-10-26T01:18:45;7.40;;;4.80;;
18340;SDS011;9296;48.084;16.352;2022-10-26T01:24:20;7.20;;;4.20;;
18340;SDS011;9296;48.084;16.352;2022-10-26T01:27:16;7.93;;;4.50;;
18340;SDS011;9296;48.084;16.352;2022-10-26T01:30:12;6.45;;;4.13;;
18340;SDS011;9296;48.084;16.352;2022-10-26T01:32:44;5.88;;;4.03;;
18340;SDS011;9296;48.084;16.352;2022-10-26T01:35:18;6.05;;;4.00;;
18340;SDS011;9296;48.084;16.352;2022-10-26T01:37:53;5.40;;;3.75;;
18340;SDS011;9296;48.084;16.352;2022-10-26T01:40:28;5.80;;;3.72;;
18340;SDS011;9296;48.084;16.352;2022-10-26T01:43:01;6.32;;;3.60;;
18340;SDS011;9296;48.084;16.352;2022-10-26T01:45:33;4.90;;;3.53;;
18340;SDS011;9296;48.084;16.352;2022-10-26T01:48:05;5.80;;;3.50;;
18340;SDS011;9296;48.084;16.352;2022-10-26T01:50:34;5.68;;;3.63;;
18340;SDS011;9296;48.084;16.352;2022-10-26T01:53:01;7.13;;;3.70;;
18340;SDS011;9296;48.084;16.352;2022-10-26T01:55:39;7.70;;;3.72;;
18340;SDS011;9296;48.084;16.352;2022-10-26T01:58:12;7.47;;;3.97;;
18340;SDS011;9296;48.084;16.352;2022-10-26T02:01:00;5.97;;;3.63;;
18340;SDS011;9296;48.084;16.352;2022-10-26T02:03:35;6.97;;;3.72;;
18340;SDS011;9296;48.084;16.352;2022-10-26T02:06:10;5.63;;;3.90;;
18340;SDS011;9296;48.084;16.352;2022-10-26T02:08:49;6.95;;;3.55;;
18340;SDS011;9296;48.084;16.352;2022-10-26T02:11:23;8.70;;;3.95;;
18340;SDS011;9296;48.084;16.352;2022-10-26T02:14:01;7.80;;;4.13;;
18340;SDS011;9296;48.084;16.352;2022-10-26T02:16:35;7.22;;;4.40;;
18340;SDS011;9296;48.084;16.352;2022-10-26T02:19:09;6.65;;;3.95;;
18340;SDS011;9296;48.084;16.352;2022-10-26T02:24:34;6.95;;;4.00;;
18340;SDS011;9296;48.084;16.352;2022-10-26T02:27:03;6.43;;;3.85;;
18340;SDS011;9296;48.084;16.352;2022-10-26T02:29:33;6.82;;;3.97;;
18340;SDS011;9296;48.084;16.352;2022-10-26T02:32:02;6.00;;;4.15;;
18340;SDS011;9296;48.084;16.352;2022-10-26T02:34:31;7.40;;;4.15;;
18340;SDS011;9296;48.084;16.352;2022-10-26T02:37:02;6.70;;;4.38;;
18340;SDS011;9296;48.084;16.352;2022-10-26T02:39:31;6.18;;;4.20;;
18340;SDS011;9296;48.084;16.352;2022-10-26T02:42:00;6.45;;;3.75;;
18340;SDS011;9296;48.084;16.352;2022-10-26T02:44:31;6.43;;;3.92;;
18340;SDS011;9296;48.084;16.352;2022-10-26T02:47:02;5.43;;;3.85;;
18340;SDS011;9296;48.084;16.352;2022-10-26T02:49:29;7.05;;;4.13;;
18340;SDS011;9296;48.084;16.352;2022-10-26T02:51:59;7.65;;;4.13;;
18340;SDS011;9296;48.084;16.352;2022-10-26T02:54:31;6.57;;;3.92;;
18340;SDS011;9296;48.084;16.352;2022-10-26T02:57:03;7.55;;;4.00;;
18340;SDS011;9296;48.084;16.352;2022-10-26T02:59:34;8.77;;;4.45;;
18340;SDS011;9296;48.084;16.352;2022-10-26T03:02:05;6.90;;;3.90;;
18340;SDS011;9296;48.084;16.352;2022-10-26T03:04:33;6.57;;;4.07;;
18340;SDS011;9296;48.084;16.352;2022-10-26T03:10:06;7.75;;;3.83;;
18340;SDS011;9296;48.084;16.352;2022-10-26T03:12:34;4.60;;;3.50;;
18340;SDS011;9296;48.084;16.352;2022-10-26T03:15:01;5.55;;;3.50;;
18340;SDS011;9296;48.084;16.352;2022-10-26T03:17:29;7.95;;;3.92;;
18340;SDS011;9296;48.084;16.352;2022-10-26T03:19:56;6.32;;;3.63;;
18340;SDS011;9296;48.084;16.352;2022-10-26T03:25:27;6.63;;;3.83;;
18340;SDS011;9296;48.084;16.352;2022-10-26T03:27:57;7.53;;;4.05;;
18340;SDS011;9296;48.084;16.352;2022-10-26T03:30:24;6.57;;;3.83;;
18340;SDS011;9296;48.084;16.352;2022-10-26T03:32:53;5.15;;;3.58;;
18340;SDS011;9296;48.084;16.352;2022-10-26T03:35:20;7.47;;;3.80;;
18340;SDS011;9296;48.084;16.352;2022-10-26T03:37:48;6.72;;;3.95;;
18340;SDS011;9296;48.084;16.352;2022-10-26T03:40:15;7.35;;;3.88;;
18340;SDS011;9296;48.084;16.352;2022-10-26T03:42:42;7.85;;;4.13;;
18340;SDS011;9296;48.084;16.352;2022-10-26T03:45:09;7.15;;;3.55;;
18340;SDS011;9296;48.084;16.352;2022-10-26T03:47:42;4.05;;;2.80;;
18340;SDS011;9296;48.084;16.352;2022-10-26T03:50:12;3.33;;;2.28;;
18340;SDS011;9296;48.084;16.352;2022-10-26T03:52:40;4.07;;;2.47;;
18340;SDS011;9296;48.084;16.352;2022-10-26T03:55:07;3.08;;;2.20;;
18340;SDS011;9296;48.084;16.352;2022-10-26T03:57:38;4.25;;;2.20;;
18340;SDS011;9296;48.084;16.352;2022-10-26T04:00:06;3.40;;;2.05;;
18340;SDS011;9296;48.084;16.352;2022-10-26T04:02:34;4.68;;;2.38;;
18340;SDS011;9296;48.084;16.352;2022-10-26T04:05:01;4.25;;;2.20;;
18340;SDS011;9296;48.084;16.352;2022-10-26T04:13:46;4.78;;;2.20;;
18340;SDS011;9296;48.084;16.352;2022-10-26T04:16:13;4.30;;;2.30;;
18340;SDS011;9296;48.084;16.352;2022-10-26T04:18:40;3.47;;;2.08;;
18340;SDS011;9296;48.084;16.352;2022-10-26T04:21:07;6.38;;;2.35;;
18340;SDS011;9296;48.084;16.352;2022-10-26T04:26:57;2.33;;;1.88;;
18340;SDS011;9296;48.084;16.352;2022-10-26T04:29:24;7.13;;;2.70;;
18340;SDS011;9296;48.084;16.352;2022-10-26T04:31:51;3.97;;;2.20;;
18340;SDS011;9296;48.084;16.352;2022-10-26T04:34:18;3.10;;;2.30;;
18340;SDS011;9296;48.084;16.352;2022-10-26T04:36:44;3.88;;;2.30;;
18340;SDS011;9296;48.084;16.352;2022-10-26T04:42:40;3.45;;;2.70;;
18340;SDS011;9296;48.084;16.352;2022-10-26T04:45:08;5.45;;;2.90;;
18340;SDS011;9296;48.084;16.352;2022-10-26T04:47:37;4.50;;;3.08;;
18340;SDS011;9296;48.084;16.352;2022-10-26T04:50:04;6.72;;;3.15;;
18340;SDS011;9296;48.084;16.352;2022-10-26T04:59:18;5.22;;;3.05;;
18340;SDS011;9296;48.084;16.352;2022-10-26T05:01:45;6.03;;;3.50;;
18340;SDS011;9296;48.084;16.352;2022-10-26T05:04:12;8.00;;;3.88;;
18340;SDS011;9296;48.084;16.352;2022-10-26T05:06:38;4.68;;;3.45;;
18340;SDS011;9296;48.084;16.352;2022-10-26T05:12:13;4.47;;;3.30;;
18340;SDS011;9296;48.084;16.352;2022-10-26T05:14:42;5.88;;;3.60;;
18340;SDS011;9296;48.084;16.352;2022-10-26T05:17:08;7.95;;;3.80;;
18340;SDS011;9296;48.084;16.352;2022-10-26T05:19:35;5.30;;;3.30;;
18340;SDS011;9296;48.084;16.352;2022-10-26T05:22:02;5.88;;;3.78;;
18340;SDS011;9296;48.084;16.352;2022-10-26T05:24:29;6.13;;;3.88;;
18340;SDS011;9296;48.084;16.352;2022-10-26T05:26:56;6.05;;;3.85;;
18340;SDS011;9296;48.084;16.352;2022-10-26T05:29:26;6.18;;;4.32;;
18340;SDS011;9296;48.084;16.352;2022-10-26T05:31:54;5.47;;;4.15;;
18340;SDS011;9296;48.084;16.352;2022-10-26T05:34:21;6.32;;;3.85;;
18340;SDS011;9296;48.084;16.352;2022-10-26T05:36:48;4.85;;;3.83;;
18340;SDS011;9296;48.084;16.352;2022-10-26T05:39:17;5.18;;;3.53;;
18340;SDS011;9296;48.084;16.352;2022-10-26T05:41:44;4.75;;;3.47;;
18340;SDS011;9296;48.084;16.352;2022-10-26T05:44:11;5.05;;;3.55;;
18340;SDS011;9296;48.084;16.352;2022-10-26T05:46:38;5.45;;;3.40;;
18340;SDS011;9296;48.084;16.352;2022-10-26T05:49:07;5.45;;;3.65;;
18340;SDS011;9296;48.084;16.352;2022-10-26T05:51:34;7.25;;;3.65;;
18340;SDS011;9296;48.084;16.352;2022-10-26T05:54:01;5.75;;;4.05;;
18340;SDS011;9296;48.084;16.352;2022-10-26T05:56:33;5.70;;;3.50;;
18340;SDS011;9296;48.084;16.352;2022-10-26T05:59:10;5.20;;;3.50;;
18340;SDS011;9296;48.084;16.352;2022-10-26T06:01:52;8.77;;;3.88;;
18340;SDS011;9296;48.084;16.352;2022-10-26T06:04:35;6.53;;;3.50;;
18340;SDS011;9296;48.084;16.352;2022-10-26T06:07:03;4.95;;;3.55;;
18340;SDS011;9296;48.084;16.352;2022-10-26T06:09:36;5.45;;;3.53;;
18340;SDS011;9296;48.084;16.352;2022-10-26T06:12:03;5.93;;;3.92;;
18340;SDS011;9296;48.084;16.352;2022-10-26T06:14:35;8.00;;;3.67;;
18340;SDS011;9296;48.084;16.352;2022-10-26T06:17:06;7.72;;;4.18;;
18340;SDS011;9296;48.084;16.352;2022-10-26T06:19:49;6.22;;;4.35;;
18340;SDS011;9296;48.084;16.352;2022-10-26T06:22:35;6.35;;;4.45;;
18340;SDS011;9296;48.084;16.352;2022-10-26T06:25:14;6.50;;;4.38;;
18340;SDS011;9296;48.084;16.352;2022-10-26T06:27:51;6.22;;;3.67;;
18340;SDS011;9296;48.084;16.352;2022-10-26T06:30:24;9.30;;;4.53;;
18340;SDS011;9296;48.084;16.352;2022-10-26T06:32:54;12.65;;;7.20;;
18340;SDS011;9296;48.084;16.352;2022-10-26T06:35:26;9.13;;;5.40;;
18340;SDS011;9296;48.084;16.352;2022-10-26T06:37:59;6.43;;;4.43;;
18340;SDS011;9296;48.084;16.352;2022-10-26T06:40:31;7.05;;;4.43;;
18340;SDS011;9296;48.084;16.352;2022-10-26T06:43:00;9.60;;;6.10;;
18340;SDS011;9296;48.084;16.352;2022-10-26T06:45:28;9.82;;;5.70;;
18340;SDS011;9296;48.084;16.352;2022-10-26T06:47:58;8.40;;;5.90;;
18340;SDS011;9296;48.084;16.352;2022-10-26T06:50:32;10.85;;;6.22;;
18340;SDS011;9296;48.084;16.352;2022-10-26T06:53:05;9.73;;;6.35;;
18340;SDS011;9296;48.084;16.352;2022-10-26T06:55:44;12.35;;;7.35;;
18340;SDS011;9296;48.084;16.352;2022-10-26T06:58:15;13.75;;;8.07;;
18340;SDS011;9296;48.084;16.352;2022-10-26T07:00:47;15.40;;;9.30;;
18340;SDS011;9296;48.084;16.352;2022-10-26T07:03:16;19.25;;;12.43;;
18340;SDS011;9296;48.084;16.352;2022-10-26T07:05:46;13.18;;;7.55;;
18340;SDS011;9296;48.084;16.352;2022-10-26T07:08:13;10.43;;;6.90;;
18340;SDS011;9296;48.084;16.352;2022-10-26T07:10:40;11.38;;;6.63;;
18340;SDS011;9296;48.084;16.352;2022-10-26T07:13:09;12.63;;;7.28;;
18340;SDS011;9296;48.084;16.352;2022-10-26T07:15:37;12.45;;;7.30;;
18340;SDS011;9296;48.084;16.352;2022-10-26T07:18:05;11.95;;;7.68;;
18340;SDS011;9296;48.084;16.352;2022-10-26T07:20:34;10.13;;;6.40;;
18340;SDS011;9296;48.084;16.352;2022-10-26T07:23:06;11.07;;;7.05;;
18340;SDS011;9296;48.084;16.352;2022-10-26T07:25:36;9.02;;;6.20;;
18340;SDS011;9296;48.084;16.352;2022-10-26T07:28:07;11.63;;;6.70;;
18340;SDS011;9296;48.084;16.352;2022-10-26T07:30:36;9.75;;;6.50;;
18340;SDS011;9296;48.084;16.352;2022-10-26T07:33:05;10.43;;;6.43;;
18340;SDS011;9296;48.084;16.352;2022-10-26T07:35:33;10.45;;;6.68;;
18340;SDS011;9296;48.084;16.352;2022-10-26T07:38:05;12.13;;;6.93;;
18340;SDS011;9296;48.084;16.352;2022-10-26T07:40:34;12.57;;;6.80;;
18340;SDS011;9296;48.084;16.352;2022-10-26T07:43:04;12.25;;;7.28;;
18340;SDS011;9296;48.084;16.352;2022-10-26T07:45:31;15.45;;;7.32;;
18340;SDS011;9296;48.084;16.352;2022-10-26T07:47:59;12.60;;;7.60;;
18340;SDS011;9296;48.084;16.352;2022-10-26T07:50:30;16.55;;;8.20;;
18340;SDS011;9296;48.084;16.352;2022-10-26T07:52:57;19.45;;;8.95;;
18340;SDS011;9296;48.084;16.352;2022-10-26T07:55:30;19.63;;;9.00;;
18340;SDS011;9296;48.084;16.352;2022-10-26T07:57:58;17.60;;;9.25;;
18340;SDS011;9296;48.084;16.352;2022-10-26T08:00:27;19.13;;;9.50;;
18340;SDS011;9296;48.084;16.352;2022-10-26T08:02:56;23.98;;;9.52;;
18340;SDS011;9296;48.084;16.352;2022-10-26T08:05:26;26.70;;;10.95;;
18340;SDS011;9296;48.084;16.352;2022-10-26T08:14:44;61.72;;;10.35;;
18340;SDS011;9296;48.084;16.352;2022-10-26T08:17:17;48.50;;;10.88;;
18340;SDS011;9296;48.084;16.352;2022-10-26T08:19:46;24.90;;;11.18;;
18340;SDS011;9296;48.084;16.352;2022-10-26T08:22:16;31.40;;;10.38;;
18340;SDS011;9296;48.084;16.352;2022-10-26T08:24:46;40.72;;;14.65;;
18340;SDS011;9296;48.084;16.352;2022-10-26T08:27:15;41.15;;;10.50;;
18340;SDS011;9296;48.084;16.352;2022-10-26T08:29:43;46.90;;;10.65;;
18340;SDS011;9296;48.084;16.352;2022-10-26T08:32:10;32.15;;;9.63;;
18340;SDS011;9296;48.084;16.352;2022-10-26T08:34:38;38.33;;;10.85;;
18340;SDS011;9296;48.084;16.352;2022-10-26T08:37:05;29.38;;;10.93;;
18340;SDS011;9296;48.084;16.352;2022-10-26T08:42:55;24.70;;;10.77;;
18340;SDS011;9296;48.084;16.352;2022-10-26T08:45:29;22.58;;;10.90;;
18340;SDS011;9296;48.084;16.352;2022-10-26T08:48:03;24.92;;;11.07;;
18340;SDS011;9296;48.084;16.352;2022-10-26T08:50:38;32.97;;;12.10;;
18340;SDS011;9296;48.084;16.352;2022-10-26T08:56:32;19.52;;;10.50;;
18340;SDS011;9296;48.084;16.352;2022-10-26T08:59:05;20.83;;;9.77;;
18340;SDS011;9296;48.084;16.352;2022-10-26T09:01:40;19.60;;;10.55;;
18340;SDS011;9296;48.084;16.352;2022-10-26T09:04:08;18.10;;;9.88;;
18340;SDS011;9296;48.084;16.352;2022-10-26T09:06:41;20.05;;;10.43;;
18340;SDS011;9296;48.084;16.352;2022-10-26T09:09:16;18.20;;;9.85;;
18340;SDS011;9296;48.084;16.352;2022-10-26T09:11:50;17.75;;;10.05;;
18340;SDS011;9296;48.084;16.352;2022-10-26T09:14:28;19.13;;;9.63;;
18340;SDS011;9296;48.084;16.352;2022-10-26T09:17:07;14.80;;;9.30;;
18340;SDS011;9296;48.084;16.352;2022-10-26T09:19:44;14.23;;;9.10;;
18340;SDS011;9296;48.084;16.352;2022-10-26T09:22:23;16.38;;;8.70;;
18340;SDS011;9296;48.084;16.352;2022-10-26T09:28:17;16.38;;;9.25;;
18340;SDS011;9296;48.084;16.352;2022-10-26T09:30:44;16.67;;;8.57;;
18340;SDS011;9296;48.084;16.352;2022-10-26T09:33:17;17.35;;;9.75;;
18340;SDS011;9296;48.084;16.352;2022-10-26T09:35:49;22.88;;;10.50;;
18340;SDS011;9296;48.084;16.352;2022-10-26T09:44:57;16.33;;;9.05;;
18340;SDS011;9296;48.084;16.352;2022-10-26T09:47:33;22.23;;;10.60;;
18340;SDS011;9296;48.084;16.352;2022-10-26T09:50:13;24.20;;;12.35;;
18340;SDS011;9296;48.084;16.352;2022-10-26T09:52:44;25.67;;;13.40;;
18340;SDS011;9296;48.084;16.352;2022-10-26T09:58:17;39.65;;;17.33;;
18340;SDS011;9296;48.084;16.352;2022-10-26T10:00:49;39.20;;;17.58;;
18340;SDS011;9296;48.084;16.352;2022-10-26T10:03:18;33.78;;;16.95;;
18340;SDS011;9296;48.084;16.352;2022-10-26T10:05:48;33.90;;;16.73;;
18340;SDS011;9296;48.084;16.352;2022-10-26T10:08:16;28.30;;;15.18;;
18340;SDS011;9296;48.084;16.352;2022-10-26T10:10:58;29.65;;;15.27;;
18340;SDS011;9296;48.084;16.352;2022-10-26T10:13:28;31.55;;;16.25;;
18340;SDS011;9296;48.084;16.352;2022-10-26T10:16:00;29.48;;;15.50;;
18340;SDS011;9296;48.084;16.352;2022-10-26T10:18:31;28.45;;;15.55;;
18340;SDS011;9296;48.084;16.352;2022-10-26T10:21:01;28.08;;;15.48;;
18340;SDS011;9296;48.084;16.352;2022-10-26T10:23:30;26.00;;;13.98;;
18340;SDS011;9296;48.084;16.352;2022-10-26T10:26:03;22.23;;;13.10;;
18340;SDS011;9296;48.084;16.352;2022-10-26T10:28:35;25.73;;;14.40;;
18340;SDS011;9296;48.084;16.352;2022-10-26T10:31:03;23.80;;;14.93;;
18340;SDS011;9296;48.084;16.352;2022-10-26T10:33:43;23.23;;;13.88;;
18340;SDS011;9296;48.084;16.352;2022-10-26T10:36:14;22.77;;;13.60;;
18340;SDS011;9296;48.084;16.352;2022-10-26T10:38:44;23.65;;;13.70;;
18340;SDS011;9296;48.084;16.352;2022-10-26T10:41:15;23.20;;;13.43;;
18340;SDS011;9296;48.084;16.352;2022-10-26T10:43:45;24.38;;;13.30;;
18340;SDS011;9296;48.084;16.352;2022-10-26T10:46:17;21.42;;;13.05;;
18340;SDS011;9296;48.084;16.352;2022-10-26T10:48:50;23.23;;;13.88;;
18340;SDS011;9296;48.084;16.352;2022-10-26T10:51:29;23.33;;;14.00;;
18340;SDS011;9296;48.084;16.352;2022-10-26T10:57:41;24.50;;;14.65;;
18340;SDS011;9296;48.084;16.352;2022-10-26T11:00:21;26.48;;;14.68;;
18340;SDS011;9296;48.084;16.352;2022-10-26T11:02:56;26.83;;;15.50;;
18340;SDS011;9296;48.084;16.352;2022-10-26T11:05:37;23.60;;;14.65;;
18340;SDS011;9296;48.084;16.352;2022-10-26T11:08:27;26.83;;;14.90;;
18340;SDS011;9296;48.084;16.352;2022-10-26T11:10:58;23.90;;;14.50;;
18340;SDS011;9296;48.084;16.352;2022-10-26T11:13:30;25.42;;;14.73;;
18340;SDS011;9296;48.084;16.352;2022-10-26T11:16:02;24.20;;;14.23;;
18340;SDS011;9296;48.084;16.352;2022-10-26T11:18:33;22.38;;;13.35;;
18340;SDS011;9296;48.084;16.352;2022-10-26T11:21:17;25.40;;;14.30;;
18340;SDS011;9296;48.084;16.352;2022-10-26T11:24:12;23.90;;;13.57;;
18340;SDS011;9296;48.084;16.352;2022-10-26T11:26:44;26.02;;;13.82;;
18340;SDS011;9296;48.084;16.352;2022-10-26T11:29:28;24.60;;;14.38;;
18340;SDS011;9296;48.084;16.352;2022-10-26T11:32:01;33.80;;;17.75;;
18340;SDS011;9296;48.084;16.352;2022-10-26T11:34:35;26.92;;;14.27;;
18340;SDS011;9296;48.084;16.352;2022-10-26T11:37:12;27.52;;;16.13;;
18340;SDS011;9296;48.084;16.352;2022-10-26T11:43:12;27.70;;;15.35;;
18340;SDS011;9296;48.084;16.352;2022-10-26T11:45:44;32.45;;;16.77;;
18340;SDS011;9296;48.084;16.352;2022-10-26T11:48:15;30.48;;;16.13;;
18340;SDS011;9296;48.084;16.352;2022-10-26T11:50:47;33.88;;;16.85;;
18340;SDS011;9296;48.084;16.352;2022-10-26T11:53:19;31.13;;;16.17;;
18340;SDS011;9296;48.084;16.352;2022-10-26T11:55:50;30.90;;;16.15;;
18340;SDS011;9296;48.084;16.352;2022-10-26T11:58:22;30.40;;;16.02;;
18340;SDS011;9296;48.084;16.352;2022-10-26T12:01:22;30.55;;;16.42;;
18340;SDS011;9296;48.084;16.352;2022-10-26T12:03:59;31.48;;;16.48;;
18340;SDS011;9296;48.084;16.352;2022-10-26T12:06:31;32.55;;;18.33;;
18340;SDS011;9296;48.084;16.352;2022-10-26T12:09:00;36.85;;;20.15;;
18340;SDS011;9296;48.084;16.352;2022-10-26T12:11:34;37.90;;;20.17;;
18340;SDS011;9296;48.084;16.352;2022-10-26T12:14:11;33.28;;;19.20;;
18340;SDS011;9296;48.084;16.352;2022-10-26T12:16:46;32.92;;;19.77;;
18340;SDS011;9296;48.084;16.352;2022-10-26T12:19:19;32.80;;;19.20;;
18340;SDS011;9296;48.084;16.352;2022-10-26T12:21:51;27.55;;;16.63;;
18340;SDS011;9296;48.084;16.352;2022-10-26T12:27:55;25.10;;;16.25;;
18340;SDS011;9296;48.084;16.352;2022-10-26T12:30:27;28.23;;;16.70;;
18340;SDS011;9296;48.084;16.352;2022-10-26T12:32:56;29.00;;;16.83;;
18340;SDS011;9296;48.084;16.352;2022-10-26T12:35:31;24.85;;;15.18;;
18340;SDS011;9296;48.084;16.352;2022-10-26T12:38:00;26.27;;;16.33;;
18340;SDS011;9296;48.084;16.352;2022-10-26T12:43:44;24.88;;;15.30;;
18340;SDS011;9296;48.084;16.352;2022-10-26T12:52:12;27.95;;;17.27;;
18340;SDS011;9296;48.084;16.352;2022-10-26T12:54:45;28.50;;;16.98;;
18340;SDS011;9296;48.084;16.352;2022-10-26T12:57:27;26.58;;;16.38;;
18340;SDS011;9296;48.084;16.352;2022-10-26T12:59:59;26.50;;;15.68;;
18340;SDS011;9296;48.084;16.352;2022-10-26T13:05:36;25.15;;;15.57;;
18340;SDS011;9296;48.084;16.352;2022-10-26T13:08:27;31.05;;;19.33;;
18340;SDS011;9296;48.084;16.352;2022-10-26T13:11:04;29.55;;;17.50;;
18340;SDS011;9296;48.084;16.352;2022-10-26T13:13:38;33.22;;;19.25;;
18340;SDS011;9296;48.084;16.352;2022-10-26T13:16:09;30.63;;;18.85;;
18340;SDS011;9296;48.084;16.352;2022-10-26T13:18:40;34.38;;;19.02;;
18340;SDS011;9296;48.084;16.352;2022-10-26T13:21:10;28.90;;;17.55;;
18340;SDS011;9296;48.084;16.352;2022-10-26T13:23:39;27.35;;;17.58;;
18340;SDS011;9296;48.084;16.352;2022-10-26T13:26:09;27.38;;;17.08;;
18340;SDS011;9296;48.084;16.352;2022-10-26T13:28:47;27.42;;;16.85;;
18340;SDS011;9296;48.084;16.352;2022-10-26T13:34:20;26.70;;;16.67;;
18340;SDS011;9296;48.084;16.352;2022-10-26T13:36:54;31.40;;;19.95;;
18340;SDS011;9296;48.084;16.352;2022-10-26T13:39:30;31.73;;;18.38;;
18340;SDS011;9296;48.084;16.352;2022-10-26T13:42:01;32.22;;;19.48;;
18340;SDS011;9296;48.084;16.352;2022-10-26T13:44:29;27.15;;;16.98;;
18340;SDS011;9296;48.084;16.352;2022-10-26T13:47:02;27.70;;;17.60;;
18340;SDS011;9296;48.084;16.352;2022-10-26T13:49:37;26.17;;;16.70;;
18340;SDS011;9296;48.084;16.352;2022-10-26T13:52:12;27.05;;;16.88;;
18340;SDS011;9296;48.084;16.352;2022-10-26T13:57:18;24.02;;;16.20;;
18340;SDS011;9296;48.084;16.352;2022-10-26T13:59:48;27.45;;;17.10;;
18340;SDS011;9296;48.084;16.352;2022-10-26T14:02:21;28.90;;;17.77;;
18340;SDS011;9296;48.084;16.352;2022-10-26T14:04:53;29.15;;;17.48;;
18340;SDS011;9296;48.084;16.352;2022-10-26T14:07:28;26.48;;;16.60;;
18340;SDS011;9296;48.084;16.352;2022-10-26T14:10:02;26.13;;;17.95;;
18340;SDS011;9296;48.084;16.352;2022-10-26T14:12:30;27.30;;;17.52;;
18340;SDS011;9296;48.084;16.352;2022-10-26T14:15:00;29.83;;;17.80;;
18340;SDS011;9296;48.084;16.352;2022-10-26T14:17:31;27.45;;;16.95;;
18340;SDS011;9296;48.084;16.352;2022-10-26T14:19:59;28.52;;;17.45;;
18340;SDS011;9296;48.084;16.352;2022-10-26T14:22:32;29.98;;;18.60;;
18340;SDS011;9296;48.084;16.352;2022-10-26T14:31:11;44.53;;;21.08;;
18340;SDS011;9296;48.084;16.352;2022-10-26T14:33:39;32.20;;;19.67;;
18340;SDS011;9296;48.084;16.352;2022-10-26T14:36:07;32.58;;;18.60;;
18340;SDS011;9296;48.084;16.352;2022-10-26T14:38:40;31.95;;;19.15;;
18340;SDS011;9296;48.084;16.352;2022-10-26T14:41:12;31.75;;;19.60;;
18340;SDS011;9296;48.084;16.352;2022-10-26T14:43:43;33.42;;;20.27;;
18340;SDS011;9296;48.084;16.352;2022-10-26T14:46:31;31.67;;;20.70;;
18340;SDS011;9296;48.084;16.352;2022-10-26T14:49:00;30.85;;;19.73;;
18340;SDS011;9296;48.084;16.352;2022-10-26T14:51:32;31.65;;;19.98;;
18340;SDS011;9296;48.084;16.352;2022-10-26T14:54:04;31.45;;;19.45;;
18340;SDS011;9296;48.084;16.352;2022-10-26T14:56:44;32.65;;;19.77;;
18340;SDS011;9296;48.084;16.352;2022-10-26T14:59:17;33.17;;;20.30;;
18340;SDS011;9296;48.084;16.352;2022-10-26T15:01:51;32.33;;;19.60;;
18340;SDS011;9296;48.084;16.352;2022-10-26T15:04:27;33.83;;;21.05;;
18340;SDS011;9296;48.084;16.352;2022-10-26T15:09:47;33.80;;;21.75;;
18340;SDS011;9296;48.084;16.352;2022-10-26T15:12:18;36.28;;;21.25;;
18340;SDS011;9296;48.084;16.352;2022-10-26T15:14:48;37.03;;;21.88;;
18340;SDS011;9296;48.084;16.352;2022-10-26T15:17:18;38.25;;;22.17;;
18340;SDS011;9296;48.084;16.352;2022-10-26T15:19:51;40.95;;;22.63;;
18340;SDS011;9296;48.084;16.352;2022-10-26T15:22:20;41.97;;;24.60;;
18340;SDS011;9296;48.084;16.352;2022-10-26T15:24:51;46.40;;;25.65;;
18340;SDS011;9296;48.084;16.352;2022-10-26T15:27:20;52.40;;;27.85;;
18340;SDS011;9296;48.084;16.352;2022-10-26T15:29:49;50.13;;;27.00;;
18340;SDS011;9296;48.084;16.352;2022-10-26T15:32:19;49.88;;;27.05;;
18340;SDS011;9296;48.084;16.352;2022-10-26T15:37:48;49.70;;;26.65;;
18340;SDS011;9296;48.084;16.352;2022-10-26T15:43:08;50.08;;;27.30;;
18340;SDS011;9296;48.084;16.352;2022-10-26T15:45:39;50.13;;;26.50;;
18340;SDS011;9296;48.084;16.352;2022-10-26T15:48:17;53.38;;;27.52;;
18340;SDS011;9296;48.084;16.352;2022-10-26T15:50:47;52.92;;;27.50;;
18340;SDS011;9296;48.084;16.352;2022-10-26T15:53:18;51.40;;;27.98;;
18340;SDS011;9296;48.084;16.352;2022-10-26T15:55:50;52.40;;;27.20;;
18340;SDS011;9296;48.084;16.352;2022-10-26T15:58:18;55.65;;;28.00;;
18340;SDS011;9296;48.084;16.352;2022-10-26T16:00:46;51.08;;;27.55;;
18340;SDS011;9296;48.084;16.352;2022-10-26T16:03:17;52.58;;;27.70;;
18340;SDS011;9296;48.084;16.352;2022-10-26T16:06:01;53.95;;;29.15;;
18340;SDS011;9296;48.084;16.352;2022-10-26T16:08:29;53.20;;;27.60;;
18340;SDS011;9296;48.084;16.352;2022-10-26T16:13:44;55.03;;;27.33;;
18340;SDS011;9296;48.084;16.352;2022-10-26T16:16:11;52.50;;;26.27;;
18340;SDS011;9296;48.084;16.352;2022-10-26T16:18:39;52.75;;;25.77;;
18340;SDS011;9296;48.084;16.352;2022-10-26T16:21:09;53.55;;;26.30;;
18340;SDS011;9296;48.084;16.352;2022-10-26T16:23:41;52.65;;;26.63;;
18340;SDS011;9296;48.084;16.352;2022-10-26T16:26:12;50.83;;;26.27;;
18340;SDS011;9296;48.084;16.352;2022-10-26T16:28:41;51.53;;;26.65;;
18340;SDS011;9296;48.084;16.352;2022-10-26T16:31:10;47.35;;;24.83;;
18340;SDS011;9296;48.084;16.352;2022-10-26T16:33:39;53.30;;;26.70;;
18340;SDS011;9296;48.084;16.352;2022-10-26T16:36:06;52.72;;;25.10;;
18340;SDS011;9296;48.084;16.352;2022-10-26T16:38:35;50.25;;;26.15;;
18340;SDS011;9296;48.084;16.352;2022-10-26T16:44:10;51.17;;;25.77;;
18340;SDS011;9296;48.084;16.352;2022-10-26T16:46:37;53.00;;;27.25;;
18340;SDS011;9296;48.084;16.352;2022-10-26T16:49:05;48.28;;;25.63;;
18340;SDS011;9296;48.084;16.352;2022-10-26T16:51:32;51.25;;;25.52;;
18340;SDS011;9296;48.084;16.352;2022-10-26T16:53:59;52.30;;;25.45;;
18340;SDS011;9296;48.084;16.352;2022-10-26T16:59:49;48.67;;;26.42;;
18340;SDS011;9296;48.084;16.352;2022-10-26T17:02:16;51.00;;;25.17;;
18340;SDS011;9296;48.084;16.352;2022-10-26T17:04:47;46.08;;;26.02;;